Time;durP1;ratioP1;P1;durP2;ratioP2;P2;SDS_P1;SDS_P2;PMS_P1;PMS_P2;Temp;Humidity;BMP_temperature;BMP_pressure;BME280_temperature;BME280_humidity;BME280_pressure;Samples;Min_cycle;Max_cycle;Signal;HPM_P1;HPM_P2
2023/02/06 00:00:18;;;;;;;0.82;0.82;;;;;;;;;;5026669;28;20037;-74
2023/02/06 00:02:44;;;;;;;0.50;0.50;;;;;;;;;;5010503;28;20068;-73
2023/02/06 00:05:09;;;;;;;0.50;0.50;;;;;;;;;;5010374;28;20038;-73
2023/02/06 00:07:34;;;;;;;20.35;9.27;;;;;;;;;;4993772;28;20037;-73
2023/02/06 00:10:00;;;;;;;0.80;0.80;;;;;;;;;;5010328;28;20022;-73
2023/02/06 00:12:25;;;;;;;0.60;0.60;;;;;;;;;;5010125;28;20046;-73
2023/02/06 00:14:50;;;;;;;0.80;0.80;;;;;;;;;;5011563;28;20032;-73
2023/02/06 00:17:16;;;;;;;0.63;0.63;;;;;;;;;;5043135;28;20480;-73
2023/02/06 00:19:43;;;;;;;2.05;1.95;;;;;;;;;;5010088;28;20029;-74
2023/02/06 00:22:09;;;;;;;0.45;0.45;;;;;;;;;;5010158;28;20088;-73
2023/02/06 00:24:34;;;;;;;0.70;0.70;;;;;;;;;;5026490;28;20037;-73
2023/02/06 00:27:00;;;;;;;0.80;0.80;;;;;;;;;;5042927;28;20037;-74
2023/02/06 00:29:25;;;;;;;0.60;0.60;;;;;;;;;;5009900;28;20028;-74
2023/02/06 00:31:51;;;;;;;0.50;0.50;;;;;;;;;;5010131;28;20033;-74
2023/02/06 00:34:16;;;;;;;0.93;0.93;;;;;;;;;;4999968;28;20109;-74
2023/02/06 00:36:41;;;;;;;0.50;0.50;;;;;;;;;;5009863;28;20120;-74
2023/02/06 00:39:07;;;;;;;0.70;0.70;;;;;;;;;;5026085;28;20033;-73
2023/02/06 00:41:33;;;;;;;0.80;0.80;;;;;;;;;;4995326;28;20038;-74
2023/02/06 00:43:58;;;;;;;1.33;1.33;;;;;;;;;;5013040;28;20396;-73
2023/02/06 00:46:24;;;;;;;0.70;0.70;;;;;;;;;;4985956;28;20042;-74
2023/02/06 00:48:49;;;;;;;0.70;0.70;;;;;;;;;;5009887;28;20097;-73
2023/02/06 00:51:14;;;;;;;0.60;0.60;;;;;;;;;;4984281;28;20041;-74
2023/02/06 00:53:40;;;;;;;0.47;0.47;;;;;;;;;;5014774;28;20472;-74
2023/02/06 00:56:05;;;;;;;0.60;0.60;;;;;;;;;;5013514;28;20037;-74
2023/02/06 00:58:31;;;;;;;0.50;0.50;;;;;;;;;;5012974;28;20058;-73
2023/02/06 01:00:56;;;;;;;0.60;0.60;;;;;;;;;;5029737;28;20368;-73
2023/02/06 01:03:22;;;;;;;0.60;0.60;;;;;;;;;;5014572;28;20030;-72
2023/02/06 01:05:47;;;;;;;0.50;0.50;;;;;;;;;;5040396;28;20038;-72
2023/02/06 01:08:12;;;;;;;0.50;0.50;;;;;;;;;;4991248;28;20026;-73
2023/02/06 01:10:42;;;;;;;0.60;0.60;;;;;;;;;;5013225;28;20038;-73
2023/02/06 01:13:08;;;;;;;0.50;0.50;;;;;;;;;;5029561;28;20022;-74
2023/02/06 01:15:34;;;;;;;1.35;1.35;;;;;;;;;;5014334;28;20056;-72
2023/02/06 01:18:02;;;;;;;0.50;0.50;;;;;;;;;;4993743;28;20120;-72
2023/02/06 01:20:27;;;;;;;6.00;1.75;;;;;;;;;;5013094;28;20173;-74
2023/02/06 01:22:52;;;;;;;0.65;0.65;;;;;;;;;;5012915;28;20156;-74
2023/02/06 01:25:18;;;;;;;0.60;0.60;;;;;;;;;;5029239;28;20091;-72
2023/02/06 01:27:43;;;;;;;0.70;0.70;;;;;;;;;;5029104;28;20033;-74
2023/02/06 01:30:10;;;;;;;0.40;0.40;;;;;;;;;;5014023;28;20484;-74
2023/02/06 01:32:36;;;;;;;0.77;0.77;;;;;;;;;;5045978;28;20022;-73
2023/02/06 01:35:03;;;;;;;0.98;0.98;;;;;;;;;;4993361;28;20030;-72
2023/02/06 01:37:29;;;;;;;0.75;0.75;;;;;;;;;;4993281;28;20034;-73
2023/02/06 01:39:54;;;;;;;0.55;0.55;;;;;;;;;;4999886;28;20176;-73
2023/02/06 01:42:20;;;;;;;0.70;0.70;;;;;;;;;;5003228;28;20514;-72
2023/02/06 01:44:46;;;;;;;1.85;1.40;;;;;;;;;;5014346;28;20041;-74
2023/02/06 01:47:12;;;;;;;0.60;0.60;;;;;;;;;;5045533;28;20113;-72
2023/02/06 01:49:41;;;;;;;0.82;0.82;;;;;;;;;;5012751;28;20121;-72
2023/02/06 01:52:13;;;;;;;0.50;0.50;;;;;;;;;;5016128;28;20154;-72
2023/02/06 01:54:39;;;;;;;1.10;1.10;;;;;;;;;;5033237;28;20053;-72
2023/02/06 01:57:06;;;;;;;0.60;0.60;;;;;;;;;;5029075;28;20026;-72
2023/02/06 01:59:32;;;;;;;0.50;0.50;;;;;;;;;;5024703;28;20026;-72
2023/02/06 02:01:58;;;;;;;2.00;1.90;;;;;;;;;;5040677;28;20025;-72
2023/02/06 02:04:25;;;;;;;0.60;0.60;;;;;;;;;;4996395;28;20467;-72
2023/02/06 02:07:02;;;;;;;0.65;0.65;;;;;;;;;;5012227;28;20026;-72
2023/02/06 02:09:28;;;;;;;0.47;0.47;;;;;;;;;;5028880;28;20411;-72
2023/02/06 02:11:53;;;;;;;0.70;0.70;;;;;;;;;;5013708;28;20498;-72
2023/02/06 02:14:19;;;;;;;0.47;0.47;;;;;;;;;;5029112;28;20037;-73
2023/02/06 02:16:52;;;;;;;1.15;1.15;;;;;;;;;;5012366;28;20550;-71
2023/02/06 02:19:55;;;;;;;0.90;0.90;;;;;;;;;;5012448;28;20523;-72
2023/02/06 02:22:41;;;;;;;0.52;0.52;;;;;;;;;;5009279;28;20121;-71
2023/02/06 02:25:36;;;;;;;0.60;0.60;;;;;;;;;;4993515;28;20035;-71
2023/02/06 02:28:23;;;;;;;0.60;0.60;;;;;;;;;;5012221;28;20184;-72
2023/02/06 02:31:27;;;;;;;1.23;1.23;;;;;;;;;;5057929;28;20038;-72
2023/02/06 02:34:00;;;;;;;0.60;0.60;;;;;;;;;;5032206;28;20065;-72
2023/02/06 02:36:52;;;;;;;0.60;0.60;;;;;;;;;;5064837;28;20049;-72
2023/02/06 02:39:25;;;;;;;0.57;0.57;;;;;;;;;;5027677;28;20102;-73
2023/02/06 02:42:11;;;;;;;0.60;0.60;;;;;;;;;;5009550;28;20034;-72
2023/02/06 02:44:49;;;;;;;1.13;1.13;;;;;;;;;;5023637;28;20030;-73
2023/02/06 02:47:16;;;;;;;0.60;0.60;;;;;;;;;;5022590;28;20038;-73
2023/02/06 02:49:42;;;;;;;0.60;0.60;;;;;;;;;;5012058;28;20412;-73
2023/02/06 02:52:08;;;;;;;0.60;0.60;;;;;;;;;;4995643;28;20040;-74
2023/02/06 02:54:33;;;;;;;1.85;1.23;;;;;;;;;;5011837;28;20407;-72
2023/02/06 02:57:08;;;;;;;0.60;0.60;;;;;;;;;;5018302;28;20045;-72
2023/02/06 02:59:36;;;;;;;0.63;0.63;;;;;;;;;;5008155;28;20038;-72
2023/02/06 03:02:05;;;;;;;0.50;0.50;;;;;;;;;;4977612;28;20288;-71
2023/02/06 03:04:38;;;;;;;0.50;0.50;;;;;;;;;;4991089;28;20100;-72
2023/02/06 03:07:13;;;;;;;0.50;0.50;;;;;;;;;;4995031;28;20396;-71
2023/02/06 03:09:49;;;;;;;0.60;0.60;;;;;;;;;;5003786;28;20034;-71
2023/02/06 03:12:23;;;;;;;;;;;;;;;;;;5027959;28;20033;-72
2023/02/06 03:14:54;;;;;;;0.57;0.57;;;;;;;;;;5011071;28;19917;-71
2023/02/06 03:17:35;;;;;;;0.60;0.60;;;;;;;;;;5010803;28;20042;-71
2023/02/06 03:20:03;;;;;;;0.60;0.60;;;;;;;;;;5027350;28;20149;-74
2023/02/06 03:22:29;;;;;;;0.60;0.60;;;;;;;;;;4991468;28;20034;-74
2023/02/06 03:24:56;;;;;;;0.60;0.60;;;;;;;;;;5005863;28;20503;-72
2023/02/06 03:27:21;;;;;;;1.55;1.55;;;;;;;;;;5017313;28;20025;-72
2023/02/06 03:29:49;;;;;;;0.50;0.50;;;;;;;;;;5030638;28;20045;-72
2023/02/06 03:32:22;;;;;;;0.57;0.57;;;;;;;;;;4994457;28;20022;-73
2023/02/06 03:34:59;;;;;;;0.55;0.55;;;;;;;;;;5010863;28;20045;-73
2023/02/06 03:37:25;;;;;;;0.90;0.90;;;;;;;;;;5026873;28;20034;-73
2023/02/06 03:39:50;;;;;;;0.60;0.60;;;;;;;;;;5030108;28;20030;-73
2023/02/06 03:42:16;;;;;;;0.60;0.60;;;;;;;;;;5030671;28;20374;-73
2023/02/06 03:44:52;;;;;;;0.63;0.63;;;;;;;;;;5010396;28;20113;-74
2023/02/06 03:47:17;;;;;;;;;;;;;;;;;;5027204;28;20116;-73
2023/02/06 03:49:44;;;;;;;1.33;1.33;;;;;;;;;;5011560;28;19913;-72
2023/02/06 03:52:12;;;;;;;1.20;1.20;;;;;;;;;;5001502;28;20041;-74
2023/02/06 03:54:46;;;;;;;7.70;3.08;;;;;;;;;;4996055;28;20029;-72
2023/02/06 03:57:13;;;;;;;0.50;0.50;;;;;;;;;;5010236;28;20038;-72
2023/02/06 03:59:39;;;;;;;0.60;0.60;;;;;;;;;;4988941;28;20104;-71
2023/02/06 04:02:05;;;;;;;0.50;0.50;;;;;;;;;;5006375;28;20771;-73
2023/02/06 04:04:34;;;;;;;0.52;0.52;;;;;;;;;;5010405;28;20431;-73
2023/02/06 04:07:25;;;;;;;0.60;0.60;;;;;;;;;;4997319;28;20096;-74
2023/02/06 04:09:51;;;;;;;0.63;0.63;;;;;;;;;;5011692;28;20038;-73
2023/02/06 04:12:17;;;;;;;0.82;0.82;;;;;;;;;;5007162;28;20369;-73
2023/02/06 04:14:42;;;;;;;0.85;0.85;;;;;;;;;;5004110;28;20041;-73
2023/02/06 04:17:08;;;;;;;0.60;0.60;;;;;;;;;;5015898;28;20026;-70
2023/02/06 04:19:33;;;;;;;0.50;0.50;;;;;;;;;;5015646;28;20056;-70
2023/02/06 04:21:59;;;;;;;0.50;0.50;;;;;;;;;;5034434;28;20026;-71
2023/02/06 04:24:24;;;;;;;0.50;0.50;;;;;;;;;;5015483;28;20030;-73
2023/02/06 04:26:50;;;;;;;1.05;1.05;;;;;;;;;;5030513;28;20399;-71
2023/02/06 04:29:15;;;;;;;0.40;0.40;;;;;;;;;;5014100;28;20389;-71
2023/02/06 04:31:41;;;;;;;0.57;0.57;;;;;;;;;;5000958;28;20064;-71
2023/02/06 04:34:06;;;;;;;0.50;0.50;;;;;;;;;;5005319;28;20041;-71
2023/02/06 04:36:32;;;;;;;0.57;0.57;;;;;;;;;;5030684;28;20060;-71
2023/02/06 04:38:58;;;;;;;0.60;0.60;;;;;;;;;;5013676;28;20045;-70
2023/02/06 04:41:23;;;;;;;0.60;0.60;;;;;;;;;;5013931;28;20140;-70
2023/02/06 04:43:50;;;;;;;1.45;1.45;;;;;;;;;;5004722;28;20042;-73
2023/02/06 04:46:15;;;;;;;0.60;0.60;;;;;;;;;;5025962;28;20088;-72
2023/02/06 04:48:40;;;;;;;1.08;1.08;;;;;;;;;;5013609;28;20037;-70
2023/02/06 04:51:06;;;;;;;1.40;1.40;;;;;;;;;;5030339;28;20021;-72
2023/02/06 04:53:31;;;;;;;0.57;0.57;;;;;;;;;;5015038;28;20034;-73
2023/02/06 04:56:04;;;;;;;0.60;0.60;;;;;;;;;;5016910;28;20395;-72
2023/02/06 04:58:29;;;;;;;0.60;0.60;;;;;;;;;;5033774;28;20042;-73
2023/02/06 05:00:55;;;;;;;0.50;0.50;;;;;;;;;;4997731;28;20026;-73
2023/02/06 05:03:22;;;;;;;4.22;2.67;;;;;;;;;;5000653;28;20061;-72
2023/02/06 05:05:47;;;;;;;0.60;0.60;;;;;;;;;;5013221;28;20038;-72
2023/02/06 05:08:13;;;;;;;2.35;2.25;;;;;;;;;;5013448;28;20495;-73
2023/02/06 05:10:38;;;;;;;0.70;0.70;;;;;;;;;;5013679;28;20030;-75
2023/02/06 05:13:03;;;;;;;4.40;4.10;;;;;;;;;;5013536;28;20041;-72
2023/02/06 05:15:29;;;;;;;0.73;0.73;;;;;;;;;;4982358;28;20030;-74
2023/02/06 05:17:54;;;;;;;0.93;0.93;;;;;;;;;;5029688;28;20042;-73
2023/02/06 05:20:20;;;;;;;0.77;0.77;;;;;;;;;;5013453;28;20025;-72
2023/02/06 05:22:45;;;;;;;0.60;0.60;;;;;;;;;;5029558;28;20148;-74
2023/02/06 05:25:10;;;;;;;0.50;0.50;;;;;;;;;;4993688;28;20494;-73
2023/02/06 05:27:36;;;;;;;18.40;9.10;;;;;;;;;;4992486;28;20042;-73
2023/02/06 05:30:01;;;;;;;0.85;0.85;;;;;;;;;;5026447;28;20029;-73
2023/02/06 05:32:26;;;;;;;0.50;0.50;;;;;;;;;;5005562;28;20034;-73
2023/02/06 05:34:52;;;;;;;0.73;0.73;;;;;;;;;;5013136;28;20021;-74
2023/02/06 05:37:17;;;;;;;0.65;0.65;;;;;;;;;;5012825;28;20033;-73
2023/02/06 05:39:42;;;;;;;3.13;2.92;;;;;;;;;;4993528;28;20032;-73
2023/02/06 05:42:08;;;;;;;2.28;1.52;;;;;;;;;;5003637;28;20491;-73
2023/02/06 05:44:33;;;;;;;0.60;0.60;;;;;;;;;;5013107;28;20040;-72
2023/02/06 05:46:58;;;;;;;0.60;0.60;;;;;;;;;;5012920;28;20034;-73
2023/02/06 05:49:24;;;;;;;0.65;0.65;;;;;;;;;;5013962;28;20479;-73
2023/02/06 05:51:49;;;;;;;0.50;0.50;;;;;;;;;;5046177;28;20034;-73
2023/02/06 05:54:17;;;;;;;0.52;0.52;;;;;;;;;;5012774;28;20026;-71
2023/02/06 05:56:43;;;;;;;0.60;0.60;;;;;;;;;;5012811;28;20117;-72
2023/02/06 05:59:08;;;;;;;0.57;0.57;;;;;;;;;;5013049;28;20121;-74
2023/02/06 06:01:33;;;;;;;6.35;1.88;;;;;;;;;;5021241;28;20068;-73
2023/02/06 06:03:59;;;;;;;0.55;0.55;;;;;;;;;;5012519;28;20026;-72
2023/02/06 06:06:24;;;;;;;2.90;2.63;;;;;;;;;;5004262;28;20033;-73
2023/02/06 06:08:50;;;;;;;0.70;0.70;;;;;;;;;;5013019;28;20076;-74
2023/02/06 06:11:15;;;;;;;1.15;1.15;;;;;;;;;;5013150;28;20411;-72
2023/02/06 06:13:40;;;;;;;0.60;0.60;;;;;;;;;;5012065;28;20029;-74
2023/02/06 06:16:06;;;;;;;0.65;0.65;;;;;;;;;;5012000;28;20030;-73
2023/02/06 06:18:31;;;;;;;0.50;0.50;;;;;;;;;;5012249;28;20404;-74
2023/02/06 06:20:56;;;;;;;0.50;0.50;;;;;;;;;;4995505;28;20034;-73
2023/02/06 06:23:22;;;;;;;1.80;1.70;;;;;;;;;;5011919;28;20387;-74
2023/02/06 06:25:47;;;;;;;3.65;3.55;;;;;;;;;;5005037;28;20096;-73
2023/02/06 06:28:13;;;;;;;0.60;0.60;;;;;;;;;;4995092;28;20642;-74
2023/02/06 06:30:39;;;;;;;15.77;7.63;;;;;;;;;;5011892;28;20103;-74
2023/02/06 06:33:04;;;;;;;0.60;0.60;;;;;;;;;;5011683;28;20472;-73
2023/02/06 06:35:30;;;;;;;18.13;16.58;;;;;;;;;;5011739;28;20034;-73
2023/02/06 06:37:55;;;;;;;0.52;0.52;;;;;;;;;;5010745;28;20498;-73
2023/02/06 06:40:21;;;;;;;1.70;1.60;;;;;;;;;;5012219;28;20506;-73
2023/02/06 06:42:46;;;;;;;0.75;0.75;;;;;;;;;;5028021;28;20072;-73
2023/02/06 06:45:11;;;;;;;1.75;1.75;;;;;;;;;;5028045;28;20033;-73
2023/02/06 06:47:37;;;;;;;1.20;1.20;;;;;;;;;;4994838;28;20472;-73
2023/02/06 06:50:03;;;;;;;1.25;1.25;;;;;;;;;;5018668;28;20034;-72
2023/02/06 06:52:28;;;;;;;0.50;0.50;;;;;;;;;;4991158;28;20034;-74
2023/02/06 06:54:54;;;;;;;1.30;1.30;;;;;;;;;;5012358;28;20389;-74
2023/02/06 06:57:20;;;;;;;0.65;0.65;;;;;;;;;;5030902;28;20108;-74
2023/02/06 06:59:46;;;;;;;0.80;0.80;;;;;;;;;;5007723;28;20042;-72
2023/02/06 07:02:11;;;;;;;0.52;0.52;;;;;;;;;;5009144;28;20026;-73
2023/02/06 07:04:36;;;;;;;1.92;1.83;;;;;;;;;;5044221;28;20052;-72
2023/02/06 07:07:02;;;;;;;4.93;4.53;;;;;;;;;;5025197;28;20030;-73
2023/02/06 07:09:27;;;;;;;1.33;1.25;;;;;;;;;;4995037;28;20040;-73
2023/02/06 07:11:52;;;;;;;0.50;0.50;;;;;;;;;;4994605;28;20030;-74
2023/02/06 07:14:18;;;;;;;0.50;0.50;;;;;;;;;;5027446;28;20049;-73
2023/02/06 07:16:43;;;;;;;2.03;1.95;;;;;;;;;;5027444;28;20018;-73
2023/02/06 07:19:09;;;;;;;0.80;0.80;;;;;;;;;;5011783;28;20045;-72
2023/02/06 07:21:34;;;;;;;0.52;0.52;;;;;;;;;;5012026;28;20029;-73
2023/02/06 07:24:03;;;;;;;2.08;1.98;;;;;;;;;;5010788;28;20137;-73
2023/02/06 07:26:29;;;;;;;2.20;2.10;;;;;;;;;;5010828;28;20068;-73
2023/02/06 07:28:54;;;;;;;0.70;0.70;;;;;;;;;;5027116;28;20053;-73
2023/02/06 07:31:20;;;;;;;0.75;0.75;;;;;;;;;;5014220;28;20052;-73
2023/02/06 07:33:45;;;;;;;0.93;0.93;;;;;;;;;;4993720;28;20030;-73
2023/02/06 07:36:12;;;;;;;0.70;0.70;;;;;;;;;;4994000;28;20084;-73
2023/02/06 07:38:39;;;;;;;4.03;1.33;;;;;;;;;;5033278;28;20038;-73
2023/02/06 07:41:04;;;;;;;5.07;4.68;;;;;;;;;;4990505;28;20030;-73
2023/02/06 07:43:30;;;;;;;8.73;7.35;;;;;;;;;;5010493;28;20045;-73
2023/02/06 07:46:00;;;;;;;7.32;1.70;;;;;;;;;;4994008;28;20069;-73
2023/02/06 07:48:26;;;;;;;5.53;5.22;;;;;;;;;;4993373;28;20063;-73
2023/02/06 07:50:51;;;;;;;8.25;7.60;;;;;;;;;;5009870;28;20438;-74
2023/02/06 07:53:17;;;;;;;3.63;3.47;;;;;;;;;;5026655;28;20033;-73
2023/02/06 07:55:42;;;;;;;0.50;0.50;;;;;;;;;;5010068;28;20532;-73
2023/02/06 07:58:10;;;;;;;6.22;1.65;;;;;;;;;;5042533;28;20037;-73
2023/02/06 08:00:40;;;;;;;3.85;3.67;;;;;;;;;;5025469;28;20496;-73
2023/02/06 08:03:06;;;;;;;0.60;0.60;;;;;;;;;;4984751;28;20049;-72
2023/02/06 08:05:32;;;;;;;0.85;0.85;;;;;;;;;;5010137;28;20042;-73
2023/02/06 08:07:57;;;;;;;0.63;0.63;;;;;;;;;;5031849;28;20030;-73
2023/02/06 08:10:23;;;;;;;1.35;1.35;;;;;;;;;;5007363;28;20084;-73
2023/02/06 08:12:48;;;;;;;0.95;0.95;;;;;;;;;;5010464;28;20117;-73
2023/02/06 08:15:14;;;;;;;0.60;0.60;;;;;;;;;;5008585;28;20101;-73
2023/02/06 08:17:41;;;;;;;0.50;0.50;;;;;;;;;;5008268;28;20036;-73
2023/02/06 08:20:08;;;;;;;1.27;1.27;;;;;;;;;;5025344;28;20030;-73
2023/02/06 08:22:33;;;;;;;1.67;1.58;;;;;;;;;;5042396;28;20080;-73
2023/02/06 08:24:59;;;;;;;2.15;2.05;;;;;;;;;;5010039;28;20371;-73
2023/02/06 08:27:26;;;;;;;0.95;0.95;;;;;;;;;;5008710;28;20133;-73
2023/02/06 08:29:51;;;;;;;0.90;0.90;;;;;;;;;;5009686;28;20461;-73
2023/02/06 08:32:16;;;;;;;11.73;10.55;;;;;;;;;;5009667;28;20133;-72
2023/02/06 08:34:42;;;;;;;2.30;2.20;;;;;;;;;;4989955;28;20041;-73
2023/02/06 08:37:07;;;;;;;7.65;5.43;;;;;;;;;;4994742;28;20069;-73
2023/02/06 08:39:33;;;;;;;0.85;0.85;;;;;;;;;;5018518;28;20081;-73
2023/02/06 08:41:58;;;;;;;0.60;0.60;;;;;;;;;;4993386;28;20068;-73
2023/02/06 08:44:23;;;;;;;0.70;0.70;;;;;;;;;;4980715;28;20030;-73
2023/02/06 08:46:49;;;;;;;0.63;0.63;;;;;;;;;;5026181;28;20042;-73
2023/02/06 08:49:19;;;;;;;3.88;3.67;;;;;;;;;;5010621;28;20021;-73
2023/02/06 08:51:45;;;;;;;0.70;0.70;;;;;;;;;;5009781;28;20048;-73
2023/02/06 08:54:14;;;;;;;0.85;0.85;;;;;;;;;;5008634;28;20022;-73
2023/02/06 08:56:39;;;;;;;0.57;0.57;;;;;;;;;;5035906;28;20041;-72
2023/02/06 08:59:06;;;;;;;0.50;0.50;;;;;;;;;;5008764;28;20030;-73
2023/02/06 09:01:33;;;;;;;0.52;0.52;;;;;;;;;;5009775;28;20492;-73
2023/02/06 09:04:01;;;;;;;1.25;1.25;;;;;;;;;;4998848;28;20103;-73
2023/02/06 09:06:27;;;;;;;1.08;1.00;;;;;;;;;;5029630;28;20114;-74
2023/02/06 09:08:53;;;;;;;0.88;0.88;;;;;;;;;;5028880;28;20104;-73
2023/02/06 09:11:20;;;;;;;3.05;2.95;;;;;;;;;;4993477;28;20034;-73
2023/02/06 09:13:47;;;;;;;0.60;0.60;;;;;;;;;;4996720;28;20076;-73
2023/02/06 09:16:13;;;;;;;0.60;0.60;;;;;;;;;;5014098;28;20080;-73
2023/02/06 09:18:39;;;;;;;0.68;0.68;;;;;;;;;;5029156;28;20022;-73
2023/02/06 09:21:10;;;;;;;1.20;1.20;;;;;;;;;;5029414;28;20044;-73
2023/02/06 09:23:42;;;;;;;0.60;0.60;;;;;;;;;;5009660;28;20571;-74
2023/02/06 09:26:09;;;;;;;0.80;0.80;;;;;;;;;;5039227;28;20454;-73
2023/02/06 09:28:34;;;;;;;0.60;0.60;;;;;;;;;;5028417;28;20033;-72
2023/02/06 09:31:00;;;;;;;3.05;2.95;;;;;;;;;;5016008;28;20068;-73
2023/02/06 09:33:25;;;;;;;0.93;0.93;;;;;;;;;;5029088;28;20030;-73
2023/02/06 09:36:05;;;;;;;0.60;0.60;;;;;;;;;;5013729;28;20112;-72
2023/02/06 09:38:30;;;;;;;0.57;0.57;;;;;;;;;;5036371;28;20058;-73
2023/02/06 09:40:58;;;;;;;0.65;0.65;;;;;;;;;;4991848;28;20447;-73
2023/02/06 09:43:23;;;;;;;0.60;0.60;;;;;;;;;;5013720;28;20046;-73
2023/02/06 09:45:55;;;;;;;0.65;0.65;;;;;;;;;;5012478;28;20483;-72
2023/02/06 09:48:24;;;;;;;0.52;0.52;;;;;;;;;;5011745;28;20095;-73
2023/02/06 09:50:59;;;;;;;1.48;1.42;;;;;;;;;;4992680;28;20077;-73
2023/02/06 09:53:45;;;;;;;4.78;2.20;;;;;;;;;;5004915;28;20026;-73
2023/02/06 09:56:20;;;;;;;0.70;0.70;;;;;;;;;;5045314;28;20088;-73
2023/02/06 09:58:52;;;;;;;1.15;1.15;;;;;;;;;;5011493;28;20033;-72
2023/02/06 10:01:28;;;;;;;1.25;1.15;;;;;;;;;;5021321;28;20113;-73
2023/02/06 10:04:11;;;;;;;0.60;0.60;;;;;;;;;;4995712;28;20034;-72
2023/02/06 10:06:48;;;;;;;0.55;0.55;;;;;;;;;;5013416;28;20045;-73
2023/02/06 10:09:20;;;;;;;1.50;1.42;;;;;;;;;;4999710;28;20455;-73
2023/02/06 10:11:51;;;;;;;0.60;0.60;;;;;;;;;;5012048;28;20041;-73
2023/02/06 10:14:39;;;;;;;1.50;1.50;;;;;;;;;;4995465;28;20061;-73
2023/02/06 10:17:19;;;;;;;1.08;1.08;;;;;;;;;;5010655;28;20060;-73
2023/02/06 10:19:50;;;;;;;1.08;1.08;;;;;;;;;;5004184;28;20451;-73
2023/02/06 10:22:25;;;;;;;2.70;2.53;;;;;;;;;;5011852;28;20034;-73
2023/02/06 10:25:12;;;;;;;2.70;2.50;;;;;;;;;;5011666;28;20407;-73
2023/02/06 10:49:34;;;;;;;10.07;8.25;;;;;;;;;;5063844;27;20479;-51
2023/02/06 10:52:03;;;;;;;9.75;8.70;;;;;;;;;;5048557;28;20052;-49
2023/02/06 10:54:38;;;;;;;11.20;7.88;;;;;;;;;;5038390;28;20049;-58
2023/02/06 10:57:10;;;;;;;11.83;8.37;;;;;;;;;;5054666;28;20033;-54
2023/02/06 10:59:44;;;;;;;12.45;8.57;;;;;;;;;;5056668;28;20445;-56
2023/02/06 11:02:31;;;;;;;10.75;8.40;;;;;;;;;;5048147;28;20037;-54
2023/02/06 11:05:13;;;;;;;11.00;8.65;;;;;;;;;;5041510;28;20083;-50
2023/02/06 11:07:49;;;;;;;14.40;10.80;;;;;;;;;;5034295;28;20049;-57
2023/02/06 11:10:18;;;;;;;9.55;8.52;;;;;;;;;;5042533;28;74821;-55
2023/02/06 11:12:50;;;;;;;9.73;8.15;;;;;;;;;;5047297;28;20056;-62
2023/02/06 11:15:22;;;;;;;12.38;8.63;;;;;;;;;;5063124;28;20041;-62
2023/02/06 11:17:47;;;;;;;11.95;8.35;;;;;;;;;;5047441;28;20116;-63
2023/02/06 11:29:12;;;;;;;16.85;11.25;;;;;;;22.96;39.82;100055.63;5077944;28;20329;-59
2023/02/06 11:36:43;;;;;;;18.77;16.67;;;;;;;7.18;52.35;100052.53;5104862;27;20336;-77
2023/02/06 11:39:25;;;;;;;20.95;18.70;;;;;;;4.60;61.13;100061.66;5090395;28;20044;-76
2023/02/06 11:41:56;;;;;;;24.58;20.02;;;;;;;3.72;63.05;100071.78;5071714;28;20491;-76
2023/02/06 11:44:24;;;;;;;23.23;20.50;;;;;;;3.15;66.78;100052.63;5090328;28;20115;-76
2023/02/06 11:46:49;;;;;;;22.80;20.38;;;;;;;3.95;63.84;100056.97;5087288;28;20043;-76
2023/02/06 11:49:17;;;;;;;22.80;19.70;;;;;;;3.38;65.67;100058.34;5070496;28;20481;-76
2023/02/06 11:51:47;;;;;;;25.80;20.75;;;;;;;3.02;67.17;100070.81;5088790;28;20449;-76
2023/02/06 11:54:26;;;;;;;23.52;21.05;;;;;;;3.16;67.89;100064.97;5092379;28;20097;-76
2023/02/06 11:57:09;;;;;;;23.80;21.30;;;;;;;3.12;67.82;100052.13;5095974;28;20048;-74
2023/02/06 11:59:36;;;;;;;27.13;22.50;;;;;;;2.76;69.37;100052.06;5066640;28;20039;-75
2023/02/06 12:02:20;;;;;;;25.65;22.83;;;;;;;3.41;67.18;100052.72;5076813;28;20024;-75
2023/02/06 12:04:46;;;;;;;26.52;23.83;;;;;;;2.85;69.80;100039.69;5093794;28;20042;-74
2023/02/06 12:07:29;;;;;;;24.88;22.15;;;;;;;2.49;71.53;100037.97;5092433;28;20081;-75
2023/02/06 12:09:55;;;;;;;28.80;24.40;;;;;;;2.38;71.90;100040.81;5092550;28;20039;-75
2023/02/06 12:12:25;;;;;;;26.27;23.48;;;;;;;2.82;70.24;100036.50;5095435;28;20098;-75
2023/02/06 12:14:57;;;;;;;56.10;42.22;;;;;;;2.77;70.92;100035.13;5106986;28;20035;-74
2023/02/06 12:17:43;;;;;;;27.83;24.83;;;;;;;2.06;73.14;100041.22;5097400;28;20051;-74
2023/02/06 12:20:22;;;;;;;24.80;22.30;;;;;;;1.60;74.70;100027.91;5099837;28;20063;-74
2023/02/06 12:23:00;;;;;;;26.85;22.88;;;;;;;2.22;73.05;100036.09;5099999;28;20093;-75
2023/02/06 12:25:34;;;;;;;33.92;29.70;;;;;;;1.95;74.04;100034.25;5086859;27;20036;-75
2023/02/06 12:28:24;;;;;;;29.23;25.95;;;;;;;1.83;74.41;100029.25;5058009;28;20487;-75
2023/02/06 12:30:58;;;;;;;30.33;27.10;;;;;;;1.87;74.33;100041.25;5045021;28;20045;-74
2023/02/06 12:33:34;;;;;;;27.13;24.33;;;;;;;1.99;73.98;100029.47;5045664;28;20041;-75
2023/02/06 12:36:02;;;;;;;;;;;;;;;1.61;75.38;100029.59;5064405;28;20110;-75
2023/02/06 12:38:36;;;;;;;25.52;22.80;;;;;;;1.79;74.83;100034.03;5073064;28;19919;-74
2023/02/06 12:41:20;;;;;;;26.42;23.73;;;;;;;1.86;74.46;100045.75;5046014;28;20048;-74
2023/02/06 12:43:51;;;;;;;31.15;24.55;;;;;;;2.00;74.15;100037.34;5048068;28;20040;-74
2023/02/06 12:46:22;;;;;;;27.88;24.73;;;;;;;2.09;74.19;100040.94;5048645;28;20029;-74
2023/02/06 12:49:14;;;;;;;26.08;23.25;;;;;;;2.00;73.92;100032.03;5029173;28;20037;-74
2023/02/06 12:51:52;;;;;;;25.88;23.05;;;;;;;2.04;74.11;100036.06;5058232;28;20033;-74
2023/02/06 12:54:24;;;;;;;25.75;22.98;;;;;;;1.99;74.93;100034.78;5051753;28;20479;-74
2023/02/06 12:57:04;;;;;;;27.30;24.38;;;;;;;1.65;75.92;100026.53;5037966;28;20033;-74
2023/02/06 12:59:51;;;;;;;26.88;24.00;;;;;;;1.92;75.22;100028.38;5034124;28;20124;-74
2023/02/06 13:02:50;;;;;;;27.27;23.15;;;;;;;1.68;75.39;100025.41;5038218;28;20391;-74
2023/02/06 13:05:22;;;;;;;25.60;21.73;;;;;;;1.46;75.71;100020.38;5053310;28;20033;-74
2023/02/06 13:07:48;;;;;;;25.00;22.38;;;;;;;1.76;76.00;100028.16;5048344;28;20056;-75
2023/02/06 13:10:24;;;;;;;24.98;22.38;;;;;;;1.82;75.88;100032.91;5048893;28;20471;-74
2023/02/06 13:12:57;;;;;;;26.65;22.65;;;;;;;1.90;75.07;100025.03;5015669;28;20037;-74
2023/02/06 13:15:25;;;;;;;26.77;22.35;;;;;;;1.89;75.76;100028.69;5061956;28;20029;-74
2023/02/06 13:17:51;;;;;;;25.20;21.58;;;;;;;1.99;76.16;100030.31;5031324;28;20025;-74
2023/02/06 13:20:21;;;;;;;25.45;22.65;;;;;;;1.88;76.91;100043.78;5048095;28;20037;-74
2023/02/06 13:23:09;;;;;;;23.98;21.48;;;;;;;2.09;75.21;100049.75;5031514;28;20095;-74
2023/02/06 13:25:34;;;;;;;25.00;22.23;;;;;;;2.02;76.03;100045.16;5052073;28;20043;-75
2023/02/06 13:28:27;;;;;;;24.40;21.80;;;;;;;2.04;75.26;100043.19;5031221;28;20025;-74
2023/02/06 13:30:59;;;;;;;24.77;22.10;;;;;;;2.13;76.47;100052.09;5045005;28;20597;-75
2023/02/06 13:33:26;;;;;;;25.27;22.08;;;;;;;2.17;75.98;100049.00;5019484;28;20064;-74
2023/02/06 13:35:58;;;;;;;25.70;22.55;;;;;;;1.91;76.47;100047.97;5015558;28;20037;-74
2023/02/06 13:38:23;;;;;;;25.05;21.48;;;;;;;2.04;76.08;100043.19;5042751;28;20116;-75
2023/02/06 13:41:14;;;;;;;38.58;30.02;;;;;;;2.18;75.89;100037.38;5046999;28;20140;-74
2023/02/06 13:43:57;;;;;;;34.17;27.67;;;;;;;2.34;75.55;100040.25;5036567;28;20057;-75
2023/02/06 13:47:07;;;;;;;27.88;23.00;;;;;;;1.84;76.46;100042.41;5042852;28;20394;-75
2023/02/06 13:50:05;;;;;;;25.90;21.40;;;;;;;2.16;75.88;100047.34;5019300;28;20061;-74
2023/02/06 13:52:38;;;;;;;26.42;22.83;;;;;;;1.90;76.74;100035.66;5031250;28;20033;-74
2023/02/06 13:55:17;;;;;;;24.65;21.15;;;;;;;2.06;76.27;100035.88;5014889;28;20140;-74
2023/02/06 13:58:08;;;;;;;24.00;20.45;;;;;;;1.88;77.50;100032.31;5040946;28;20479;-74
2023/02/06 14:00:38;;;;;;;24.35;20.77;;;;;;;1.99;76.48;100029.47;5035138;28;20033;-74
2023/02/06 14:03:10;;;;;;;24.40;21.75;;;;;;;1.63;78.23;100032.94;5031262;28;20045;-74
2023/02/06 14:05:43;;;;;;;23.20;20.08;;;;;;;1.68;77.92;100038.69;5052354;28;20110;-75
2023/02/06 14:08:19;;;;;;;23.08;19.80;;;;;;;1.89;77.19;100039.31;5037868;28;20112;-74
2023/02/06 14:14:00;;;;;;;24.27;19.33;;;;;;;1.89;76.48;100039.31;5034565;28;20044;-74
2023/02/06 14:16:48;;;;;;;24.48;20.60;;;;;;;1.84;77.83;100047.72;5051919;28;20044;-74
2023/02/06 14:19:28;;;;;;;25.02;20.95;;;;;;;1.81;77.86;100052.47;5047699;28;20052;-74
2023/02/06 14:22:01;;;;;;;23.48;19.80;;;;;;;1.48;78.32;100034.34;5037525;28;20037;-76
2023/02/06 14:24:45;;;;;;;23.75;20.38;;;;;;;1.58;79.18;100045.81;5053420;28;20041;-76
2023/02/06 14:27:48;;;;;;;22.05;16.95;;;;;;;1.28;78.35;100044.97;5043103;28;20040;-76
2023/02/06 14:30:31;;;;;;;19.52;17.42;;;;;;;1.16;78.75;100035.50;5031897;28;20029;-76
2023/02/06 14:33:08;;;;;;;21.92;17.73;;;;;;;1.30;78.56;100042.22;5048053;28;20091;-75
2023/02/06 14:36:11;;;;;;;21.52;16.88;;;;;;;1.45;77.96;100035.47;5031978;28;20041;-76
2023/02/06 14:38:46;;;;;;;21.77;18.45;;;;;;;1.27;79.74;100031.84;5031841;28;20041;-74
2023/02/06 14:41:11;;;;;;;20.95;16.67;;;;;;;1.39;79.24;100031.59;5033076;28;20048;-74
2023/02/06 14:43:39;;;;;;;21.15;18.13;;;;;;;1.23;79.58;100041.94;5032195;28;20038;-75